Time;durP1;ratioP1;P1;durP2;ratioP2;P2;SDS_P1;SDS_P2;PMS_P1;PMS_P2;Temp;Humidity;BMP_temperature;BMP_pressure;BME280_temperature;BME280_humidity;BME280_pressure;Samples;Min_cycle;Max_cycle;Signal;HPM_P1;HPM_P2
2022/03/08 00:00:31;;;;;;;15.18;8.70;;;-0.30;99.90;;;;;;5060063;28;20048;-70
2022/03/08 00:02:58;;;;;;;14.57;8.65;;;-0.30;99.90;;;;;;5023818;28;20087;-69
2022/03/08 00:05:24;;;;;;;15.02;9.18;;;-0.30;99.90;;;;;;5067590;28;20084;-69
2022/03/08 00:07:50;;;;;;;16.77;9.02;;;-0.40;99.90;;;;;;5056344;28;20086;-71
2022/03/08 00:10:16;;;;;;;12.38;8.45;;;-0.50;99.90;;;;;;5070312;28;20372;-71
2022/03/08 00:12:43;;;;;;;13.18;8.38;;;-0.50;99.90;;;;;;5056491;28;20058;-73
2022/03/08 00:15:11;;;;;;;13.23;9.15;;;-0.60;99.90;;;;;;5056444;28;20041;-69
2022/03/08 00:17:36;;;;;;;13.38;8.48;;;-0.60;99.90;;;;;;5056407;28;20103;-70
2022/03/08 00:20:06;;;;;;;12.05;8.30;;;-0.60;99.90;;;;;;5019534;28;1024170;-70
2022/03/08 00:22:33;;;;;;;14.23;8.75;;;-0.70;99.90;;;;;;5041014;28;20139;-70
2022/03/08 00:25:01;;;;;;;15.02;8.77;;;-0.70;99.90;;;;;;5043637;28;20044;-70
2022/03/08 00:27:27;;;;;;;14.25;8.68;;;-0.70;99.90;;;;;;5058876;28;20059;-70
2022/03/08 00:29:52;;;;;;;14.20;9.27;;;-0.60;99.90;;;;;;5057373;28;20048;-70
2022/03/08 00:32:18;;;;;;;15.38;8.77;;;-0.70;99.90;;;;;;5056959;28;20048;-71
2022/03/08 00:34:44;;;;;;;12.90;8.93;;;-0.70;99.90;;;;;;5071169;28;20059;-71
2022/03/08 00:37:10;;;;;;;13.52;8.70;;;-0.80;99.90;;;;;;5041854;28;20087;-69
2022/03/08 00:39:35;;;;;;;13.32;8.25;;;-0.80;99.90;;;;;;5058198;28;20051;-71
2022/03/08 00:42:01;;;;;;;12.52;8.65;;;-0.80;99.90;;;;;;5076825;28;20445;-71
2022/03/08 00:44:26;;;;;;;13.63;8.55;;;-0.80;99.90;;;;;;5075987;28;20101;-69
2022/03/08 00:46:52;;;;;;;13.38;9.13;;;-0.90;99.90;;;;;;5076755;28;20098;-69
2022/03/08 00:49:17;;;;;;;15.15;9.73;;;-0.80;99.90;;;;;;5065654;28;20052;-70
2022/03/08 00:51:43;;;;;;;13.50;9.27;;;-0.80;99.90;;;;;;5057452;28;20422;-70
2022/03/08 00:54:09;;;;;;;14.60;9.80;;;-0.60;99.90;;;;;;5056526;28;20412;-70
2022/03/08 00:56:34;;;;;;;13.65;9.02;;;-0.70;99.90;;;;;;5058768;28;20055;-70
2022/03/08 00:59:00;;;;;;;13.38;9.05;;;-0.70;99.90;;;;;;5067520;28;20048;-70
2022/03/08 01:01:25;;;;;;;12.63;9.38;;;-0.80;99.90;;;;;;5056425;28;20041;-71
2022/03/08 01:03:51;;;;;;;15.05;10.07;;;-0.80;99.90;;;;;;5066527;28;20463;-70
2022/03/08 01:06:16;;;;;;;16.08;8.73;;;-0.80;99.90;;;;;;5070180;28;20041;-69
2022/03/08 01:08:42;;;;;;;12.93;8.82;;;-0.80;99.90;;;;;;5056268;28;20044;-70
2022/03/08 01:11:08;;;;;;;16.40;9.60;;;-0.90;99.90;;;;;;5051816;28;20129;-70
2022/03/08 01:13:33;;;;;;;14.93;9.80;;;-0.90;99.90;;;;;;5050391;28;20049;-70
2022/03/08 01:15:59;;;;;;;14.02;9.43;;;-0.90;99.90;;;;;;5046317;28;20473;-72
2022/03/08 01:18:25;;;;;;;15.32;9.93;;;-0.70;99.90;;;;;;5057294;28;20055;-73
2022/03/08 01:20:51;;;;;;;14.18;9.18;;;-0.90;99.90;;;;;;5064075;28;20147;-70
2022/03/08 01:23:17;;;;;;;17.60;10.18;;;-0.90;99.90;;;;;;5055979;28;20051;-71
2022/03/08 01:25:42;;;;;;;13.85;9.68;;;-0.90;99.90;;;;;;5035089;28;20360;-71
2022/03/08 01:28:08;;;;;;;21.77;10.35;;;-1.00;99.90;;;;;;5044771;28;20049;-69
2022/03/08 01:30:34;;;;;;;14.88;9.40;;;-1.00;99.90;;;;;;5057607;28;20056;-71
2022/03/08 01:33:00;;;;;;;14.88;10.43;;;-1.00;99.90;;;;;;5074919;28;20048;-70
2022/03/08 01:35:26;;;;;;;16.52;9.38;;;-1.00;99.90;;;;;;5056016;28;20037;-70
2022/03/08 01:37:52;;;;;;;14.70;9.70;;;-1.00;99.90;;;;;;5054685;28;20109;-70
2022/03/08 01:40:18;;;;;;;14.73;9.43;;;-1.00;99.90;;;;;;5055728;28;20453;-70
2022/03/08 01:42:47;;;;;;;14.90;10.10;;;-1.00;99.90;;;;;;5055277;28;20514;-70
2022/03/08 01:45:15;;;;;;;16.40;10.27;;;-0.80;99.90;;;;;;5039073;28;20044;-69
2022/03/08 01:47:41;;;;;;;15.70;10.43;;;-0.90;99.90;;;;;;5055034;28;20049;-70
2022/03/08 01:50:07;;;;;;;13.88;10.43;;;-0.80;99.90;;;;;;5072615;28;20074;-70
2022/03/08 01:52:34;;;;;;;14.98;10.40;;;-0.80;99.90;;;;;;5062453;28;20110;-69
2022/03/08 01:55:00;;;;;;;16.40;10.18;;;-0.80;99.90;;;;;;5038700;28;20415;-69
2022/03/08 01:57:25;;;;;;;15.90;10.40;;;-0.80;99.90;;;;;;5056723;28;20049;-70
2022/03/08 01:59:53;;;;;;;17.30;10.52;;;-0.80;99.90;;;;;;5060449;28;20123;-71
2022/03/08 02:02:20;;;;;;;15.57;10.95;;;-0.80;99.90;;;;;;5057623;28;20040;-70
2022/03/08 02:04:46;;;;;;;15.90;10.93;;;-0.80;99.90;;;;;;5057410;28;20044;-71
2022/03/08 02:07:12;;;;;;;15.40;10.77;;;-0.90;99.90;;;;;;5072350;28;20496;-69
2022/03/08 02:09:38;;;;;;;16.02;11.50;;;-0.90;99.90;;;;;;5059077;28;20052;-70
2022/03/08 02:12:05;;;;;;;15.65;10.80;;;-0.90;99.90;;;;;;5075048;28;20453;-71
2022/03/08 02:14:30;;;;;;;15.65;10.32;;;-0.90;99.90;;;;;;5070441;28;20044;-71
2022/03/08 02:16:56;;;;;;;17.65;10.88;;;-0.90;99.90;;;;;;5058043;28;20174;-69
2022/03/08 02:19:22;;;;;;;16.70;11.50;;;-0.90;99.90;;;;;;5073293;28;20117;-70
2022/03/08 02:21:50;;;;;;;18.02;10.95;;;-0.90;99.90;;;;;;5059641;28;20124;-71
2022/03/08 02:24:15;;;;;;;18.13;11.45;;;-0.90;99.90;;;;;;5047752;28;20048;-70
2022/03/08 02:26:41;;;;;;;22.13;11.65;;;-0.90;99.90;;;;;;5074974;28;20055;-71
2022/03/08 02:29:08;;;;;;;15.90;11.23;;;-0.90;99.90;;;;;;5040361;28;20052;-69
2022/03/08 02:31:34;;;;;;;15.73;11.45;;;-1.00;99.90;;;;;;5074859;28;20049;-71
2022/03/08 02:34:00;;;;;;;15.15;10.90;;;-1.00;99.90;;;;;;5065912;28;20353;-70
2022/03/08 02:36:26;;;;;;;21.02;12.00;;;-1.00;99.90;;;;;;5056569;28;20049;-70
2022/03/08 02:38:51;;;;;;;16.98;11.13;;;-1.00;99.90;;;;;;5069648;28;20048;-70
2022/03/08 02:41:17;;;;;;;16.67;11.27;;;-1.10;99.90;;;;;;5075203;28;20430;-69
2022/03/08 02:43:43;;;;;;;18.30;11.60;;;-1.10;99.90;;;;;;5071629;28;20083;-71
2022/03/08 02:46:08;;;;;;;16.88;11.55;;;-1.10;99.90;;;;;;5054597;28;20456;-70
2022/03/08 02:48:34;;;;;;;18.45;11.75;;;-1.10;99.90;;;;;;5054873;28;20087;-69
2022/03/08 02:51:00;;;;;;;16.83;12.23;;;-1.20;99.90;;;;;;5054989;28;20053;-70
2022/03/08 02:53:26;;;;;;;18.23;12.18;;;-1.20;99.90;;;;;;5072294;28;20041;-70
2022/03/08 02:55:52;;;;;;;16.25;12.07;;;-1.20;99.90;;;;;;5045263;28;20103;-70
2022/03/08 02:58:18;;;;;;;19.05;12.75;;;-1.30;99.90;;;;;;5057371;28;20086;-70
2022/03/08 03:00:44;;;;;;;19.08;12.20;;;-1.30;99.90;;;;;;5069912;28;20056;-70
2022/03/08 03:03:09;;;;;;;17.13;11.55;;;-1.30;99.90;;;;;;5054649;28;20124;-70
2022/03/08 03:05:36;;;;;;;18.08;12.02;;;-1.30;99.90;;;;;;5063939;28;20441;-70
2022/03/08 03:08:03;;;;;;;17.50;12.80;;;-1.40;99.90;;;;;;5066824;28;20045;-71
2022/03/08 03:10:29;;;;;;;20.40;12.38;;;-1.40;99.90;;;;;;5046412;28;20049;-72
2022/03/08 03:12:56;;;;;;;18.65;13.43;;;-1.40;99.90;;;;;;5057327;28;20041;-70
2022/03/08 03:15:22;;;;;;;16.80;12.25;;;-1.40;99.90;;;;;;5072301;28;20060;-71
2022/03/08 03:17:48;;;;;;;16.67;12.70;;;-1.40;99.90;;;;;;5073682;28;20059;-72
2022/03/08 03:20:17;;;;;;;18.83;13.43;;;-1.50;99.90;;;;;;5044205;28;20052;-71
2022/03/08 03:22:43;;;;;;;17.08;12.88;;;-1.50;99.90;;;;;;5074161;28;20138;-69
2022/03/08 03:25:10;;;;;;;19.33;13.07;;;-1.50;99.90;;;;;;5068361;28;20037;-69
2022/03/08 03:27:36;;;;;;;24.60;14.02;;;-1.50;99.90;;;;;;5038489;28;20106;-71
2022/03/08 03:30:05;;;;;;;24.40;12.85;;;-1.50;99.90;;;;;;5058900;28;20056;-70
2022/03/08 03:32:31;;;;;;;19.60;13.88;;;-1.50;99.90;;;;;;5069590;28;20051;-69
2022/03/08 03:34:56;;;;;;;18.63;13.60;;;-1.40;99.90;;;;;;5054263;28;20053;-70
2022/03/08 03:37:23;;;;;;;23.08;13.85;;;-1.40;99.90;;;;;;5062739;28;20429;-69
2022/03/08 03:39:49;;;;;;;23.58;14.82;;;-1.40;99.90;;;;;;5057067;28;20072;-70
2022/03/08 03:42:15;;;;;;;21.27;14.45;;;-1.50;99.90;;;;;;5074461;28;20045;-71
2022/03/08 03:44:41;;;;;;;18.75;13.93;;;-1.30;99.90;;;;;;5073886;28;20334;-69
2022/03/08 03:47:06;;;;;;;20.95;14.13;;;-1.40;99.90;;;;;;5054331;28;20366;-70
2022/03/08 03:49:32;;;;;;;21.38;14.30;;;-1.50;99.90;;;;;;5041783;28;20106;-71
2022/03/08 03:51:57;;;;;;;20.55;13.65;;;-1.50;99.90;;;;;;5061414;28;20139;-71
2022/03/08 03:54:23;;;;;;;19.48;14.20;;;-1.50;99.90;;;;;;5055900;28;20048;-72
2022/03/08 03:56:49;;;;;;;24.00;15.15;;;-1.50;99.90;;;;;;5074576;28;20048;-71
2022/03/08 03:59:15;;;;;;;24.42;14.70;;;-1.50;99.90;;;;;;5072378;28;20033;-72
2022/03/08 04:01:41;;;;;;;22.77;14.73;;;-1.50;99.90;;;;;;5051618;28;20456;-71
2022/03/08 04:04:06;;;;;;;21.08;14.75;;;-1.40;99.90;;;;;;5077202;28;20052;-70
2022/03/08 04:06:35;;;;;;;25.00;15.55;;;-1.40;99.90;;;;;;5073519;28;20037;-71
2022/03/08 04:09:05;;;;;;;22.42;13.85;;;-1.50;99.90;;;;;;5039779;28;20045;-69
2022/03/08 04:11:31;;;;;;;18.58;13.45;;;-1.50;99.90;;;;;;5071793;28;20044;-71
2022/03/08 04:13:57;;;;;;;28.42;14.73;;;-1.50;99.90;;;;;;5058264;28;20503;-71
2022/03/08 04:16:23;;;;;;;21.75;14.43;;;-1.50;99.90;;;;;;5076067;28;20373;-71
2022/03/08 04:18:48;;;;;;;22.52;15.02;;;-1.50;99.90;;;;;;5051039;28;20055;-70
2022/03/08 04:21:14;;;;;;;20.08;14.50;;;-1.50;99.90;;;;;;5057033;28;20045;-70
2022/03/08 04:23:39;;;;;;;23.42;15.07;;;-1.60;99.90;;;;;;5063242;28;20044;-69
2022/03/08 04:26:05;;;;;;;23.73;15.48;;;-0.90;99.90;;;;;;5063891;28;20115;-71
2022/03/08 04:28:31;;;;;;;22.17;14.65;;;-1.60;99.90;;;;;;5057209;28;20037;-70
2022/03/08 04:30:56;;;;;;;20.88;14.70;;;-0.80;99.90;;;;;;5068024;28;20475;-71
2022/03/08 04:33:22;;;;;;;21.58;15.30;;;-1.60;99.90;;;;;;5056845;28;20044;-71
2022/03/08 04:35:48;;;;;;;22.45;15.15;;;-1.60;99.90;;;;;;5056997;28;20442;-70
2022/03/08 04:38:13;;;;;;;22.25;14.55;;;-1.60;99.90;;;;;;5071045;28;20040;-70
2022/03/08 04:40:39;;;;;;;21.45;15.30;;;-1.60;99.90;;;;;;5067133;28;20445;-70
2022/03/08 04:43:05;;;;;;;24.40;14.73;;;-1.50;99.90;;;;;;5056768;28;20052;-71
2022/03/08 04:45:31;;;;;;;25.17;15.23;;;-1.60;99.90;;;;;;5056292;28;20084;-72
2022/03/08 04:47:56;;;;;;;27.85;15.98;;;-1.60;99.90;;;;;;5058498;28;20051;-73
2022/03/08 04:50:22;;;;;;;23.52;14.95;;;-1.60;99.90;;;;;;5076409;28;20088;-71
2022/03/08 04:52:49;;;;;;;26.05;15.20;;;-1.60;99.90;;;;;;5025122;28;20083;-69
2022/03/08 04:55:16;;;;;;;24.00;15.52;;;-1.50;99.90;;;;;;5057251;28;20044;-70
2022/03/08 04:57:42;;;;;;;24.08;15.88;;;-1.50;99.90;;;;;;5040378;28;20071;-70
2022/03/08 05:00:11;;;;;;;25.50;15.32;;;-1.10;99.90;;;;;;5055159;28;20100;-70
2022/03/08 05:02:43;;;;;;;27.48;16.30;;;-1.50;99.90;;;;;;5072244;28;20052;-70
2022/03/08 05:05:13;;;;;;;25.23;15.45;;;-1.40;99.90;;;;;;5075948;28;20048;-70
2022/03/08 05:07:39;;;;;;;23.42;15.18;;;-1.40;99.90;;;;;;5022067;28;20038;-71
2022/03/08 05:10:07;;;;;;;25.10;15.18;;;-1.40;99.90;;;;;;5036410;28;20056;-69
2022/03/08 05:12:33;;;;;;;24.98;15.10;;;-1.40;99.90;;;;;;5050482;28;20078;-72
2022/03/08 05:14:59;;;;;;;25.75;14.93;;;-1.40;99.90;;;;;;5064535;28;20080;-71
2022/03/08 05:17:25;;;;;;;24.70;14.65;;;-1.50;99.90;;;;;;5056090;28;20084;-71
2022/03/08 05:19:51;;;;;;;28.95;15.80;;;-1.50;99.90;;;;;;5056488;28;20076;-71
2022/03/08 05:22:17;;;;;;;24.40;16.33;;;-1.50;99.90;;;;;;5056097;28;20114;-70
2022/03/08 05:24:42;;;;;;;28.17;16.10;;;-1.50;99.90;;;;;;5038729;28;20088;-73
2022/03/08 05:27:08;;;;;;;25.02;15.40;;;-1.60;99.90;;;;;;5038508;28;20484;-70
2022/03/08 05:29:34;;;;;;;28.77;16.83;;;-0.80;99.90;;;;;;5038438;28;20040;-72
2022/03/08 05:32:00;;;;;;;26.13;15.50;;;-0.90;99.90;;;;;;5038364;28;20102;-70
2022/03/08 05:34:26;;;;;;;25.58;15.85;;;-0.80;99.90;;;;;;5056194;28;20364;-70
2022/03/08 05:36:52;;;;;;;26.33;15.98;;;-1.60;99.90;;;;;;5055993;28;20128;-71
2022/03/08 05:39:17;;;;;;;29.05;17.05;;;-1.60;99.90;;;;;;5059272;28;20083;-71
2022/03/08 05:41:43;;;;;;;26.55;16.23;;;-1.60;99.90;;;;;;5069501;28;20052;-71
2022/03/08 05:44:09;;;;;;;26.05;17.08;;;-1.60;99.90;;;;;;5075738;28;20467;-73
2022/03/08 05:46:35;;;;;;;25.42;16.50;;;-1.00;99.90;;;;;;5057875;28;20048;-70
2022/03/08 05:49:00;;;;;;;23.25;15.38;;;-1.60;99.90;;;;;;5058277;28;20120;-71
2022/03/08 05:51:26;;;;;;;31.17;16.52;;;-1.60;99.90;;;;;;5075448;28;20127;-72
2022/03/08 05:53:51;;;;;;;26.10;17.08;;;-1.60;99.90;;;;;;5075427;28;20076;-71
2022/03/08 05:56:17;;;;;;;26.75;17.10;;;-1.60;99.90;;;;;;5056666;28;20105;-73
2022/03/08 05:58:42;;;;;;;27.58;16.08;;;-1.60;99.90;;;;;;5038066;28;20124;-70
2022/03/08 06:01:08;;;;;;;29.15;15.85;;;-1.60;99.90;;;;;;5055446;28;20393;-72
2022/03/08 06:03:33;;;;;;;27.35;16.90;;;-1.70;99.90;;;;;;5055468;28;20045;-72
2022/03/08 06:05:59;;;;;;;28.38;16.33;;;-1.70;99.90;;;;;;5055465;28;20040;-71
2022/03/08 06:08:24;;;;;;;29.55;17.90;;;-1.70;99.90;;;;;;5057555;28;20045;-72
2022/03/08 06:10:50;;;;;;;27.15;17.38;;;-1.60;99.90;;;;;;5061813;28;20053;-71
2022/03/08 06:13:16;;;;;;;29.92;18.40;;;-1.60;99.90;;;;;;5055016;28;20045;-73
2022/03/08 06:15:41;;;;;;;32.58;18.60;;;-1.60;99.90;;;;;;5054968;28;20048;-71
2022/03/08 06:18:07;;;;;;;28.98;17.33;;;-1.60;99.90;;;;;;5055194;28;20045;-72
2022/03/08 06:20:32;;;;;;;28.67;18.13;;;-1.60;99.90;;;;;;5037418;28;20055;-73
2022/03/08 06:22:58;;;;;;;31.42;17.83;;;-1.60;99.90;;;;;;5054907;28;20059;-73
2022/03/08 06:25:25;;;;;;;33.17;17.00;;;-1.50;99.90;;;;;;5054088;28;20048;-71
2022/03/08 06:27:50;;;;;;;28.13;17.27;;;-1.50;99.90;;;;;;5054078;28;20045;-75
2022/03/08 06:30:16;;;;;;;34.67;17.67;;;-1.50;99.90;;;;;;5042447;28;20373;-70
2022/03/08 06:32:41;;;;;;;28.48;17.20;;;-1.50;99.90;;;;;;5037022;28;20054;-71
2022/03/08 06:35:07;;;;;;;30.23;17.77;;;-1.50;99.90;;;;;;5037399;28;20472;-71
2022/03/08 06:37:33;;;;;;;29.20;16.35;;;-1.50;99.90;;;;;;5053544;28;20041;-72
2022/03/08 06:39:59;;;;;;;30.13;16.73;;;-1.30;99.90;;;;;;5054136;28;20120;-72
2022/03/08 06:42:24;;;;;;;32.42;18.10;;;-1.50;99.90;;;;;;5036727;28;20048;-72
2022/03/08 06:44:50;;;;;;;29.05;18.20;;;-1.40;99.90;;;;;;5035677;28;20037;-70
2022/03/08 06:47:16;;;;;;;31.83;18.90;;;-0.60;99.90;;;;;;5054388;28;20373;-73
2022/03/08 06:49:42;;;;;;;29.95;17.05;;;-1.50;99.90;;;;;;5036284;28;20106;-72
2022/03/08 06:52:09;;;;;;;27.42;16.77;;;-1.40;99.90;;;;;;5054418;28;20369;-73
2022/03/08 06:54:35;;;;;;;27.50;17.13;;;-1.40;99.90;;;;;;5053818;28;20092;-74
2022/03/08 06:57:00;;;;;;;28.40;16.67;;;-1.50;99.90;;;;;;5054320;28;20047;-72
2022/03/08 06:59:26;;;;;;;30.90;16.85;;;-1.40;99.90;;;;;;5053272;28;20533;-71
2022/03/08 07:01:52;;;;;;;28.60;17.05;;;-1.40;99.90;;;;;;5054175;28;20124;-73
2022/03/08 07:04:18;;;;;;;32.78;17.95;;;-1.40;99.90;;;;;;5053193;28;20041;-73
2022/03/08 07:06:44;;;;;;;29.15;16.70;;;-1.40;99.90;;;;;;5036273;28;20051;-71
2022/03/08 07:09:10;;;;;;;31.42;18.15;;;-1.30;99.90;;;;;;5054682;28;20045;-72
2022/03/08 07:11:36;;;;;;;29.63;17.58;;;-1.20;99.90;;;;;;5048630;28;20049;-73
2022/03/08 07:14:03;;;;;;;29.73;17.60;;;-1.20;99.90;;;;;;5033084;28;20037;-72
2022/03/08 07:16:28;;;;;;;26.67;17.77;;;-1.10;99.90;;;;;;5053939;28;20041;-72
2022/03/08 07:18:54;;;;;;;31.60;17.95;;;-1.10;99.90;;;;;;5035680;28;20124;-73
2022/03/08 07:21:20;;;;;;;28.08;16.90;;;-1.00;99.90;;;;;;5052084;28;20063;-73
2022/03/08 07:23:45;;;;;;;28.13;17.33;;;-0.70;99.90;;;;;;5035968;28;20068;-72
2022/03/08 07:26:11;;;;;;;27.73;16.95;;;-0.90;99.90;;;;;;5035810;28;20052;-74
2022/03/08 07:28:36;;;;;;;29.45;17.20;;;-0.80;99.90;;;;;;5037117;28;20087;-75
2022/03/08 07:31:03;;;;;;;30.90;16.80;;;-0.70;99.90;;;;;;5040004;28;20346;-75
2022/03/08 07:33:29;;;;;;;28.85;16.38;;;-0.60;99.90;;;;;;5039997;28;20103;-74
2022/03/08 07:35:54;;;;;;;25.90;16.27;;;-0.50;99.90;;;;;;5040288;28;20037;-74
2022/03/08 07:38:20;;;;;;;29.27;16.67;;;-0.40;99.90;;;;;;5040046;28;20476;-74
2022/03/08 07:40:46;;;;;;;26.92;15.10;;;-0.30;99.90;;;;;;5039997;28;20051;-76
2022/03/08 07:43:12;;;;;;;24.83;16.48;;;-0.20;99.90;;;;;;5040275;28;20045;-76
2022/03/08 07:45:38;;;;;;;27.02;15.13;;;-0.10;99.90;;;;;;5057580;28;20203;-75
2022/03/08 07:48:05;;;;;;;27.23;16.80;;;0.10;99.90;;;;;;5039518;28;20049;-76
2022/03/08 07:50:32;;;;;;;26.42;16.30;;;0.20;99.90;;;;;;5039563;28;20127;-76
2022/03/08 07:52:59;;;;;;;26.85;16.80;;;0.30;99.90;;;;;;5034928;28;20068;-75
2022/03/08 07:55:26;;;;;;;25.83;15.68;;;0.40;99.90;;;;;;5040122;28;20089;-75
2022/03/08 07:57:52;;;;;;;23.73;14.70;;;0.60;99.90;;;;;;5021226;28;20369;-75
2022/03/08 08:00:18;;;;;;;25.60;16.13;;;0.70;99.90;;;;;;5023616;28;20045;-73
2022/03/08 08:02:43;;;;;;;26.88;16.50;;;0.90;99.90;;;;;;5042827;28;20218;-77
2022/03/08 08:05:09;;;;;;;22.55;14.80;;;0.90;99.90;;;;;;5048791;28;20052;-74
2022/03/08 08:07:34;;;;;;;24.55;15.35;;;1.00;99.90;;;;;;5056816;28;20048;-75
2022/03/08 08:10:00;;;;;;;24.10;15.00;;;1.10;99.90;;;;;;5045076;28;20060;-72
2022/03/08 08:12:26;;;;;;;23.83;15.80;;;1.20;99.90;;;;;;5056962;28;20083;-73
2022/03/08 08:14:52;;;;;;;23.00;15.27;;;1.40;99.90;;;;;;5056792;28;20041;-74
2022/03/08 08:17:18;;;;;;;25.30;14.13;;;1.40;99.90;;;;;;5039399;28;20128;-73
2022/03/08 08:19:44;;;;;;;20.15;13.55;;;1.50;99.90;;;;;;5057168;28;20144;-74
2022/03/08 08:22:09;;;;;;;24.92;14.88;;;1.60;99.90;;;;;;5039205;28;20068;-73
2022/03/08 08:24:35;;;;;;;22.45;14.55;;;1.70;99.90;;;;;;5038650;28;20159;-75
2022/03/08 08:27:01;;;;;;;21.20;13.50;;;1.70;99.90;;;;;;5039419;28;20124;-76
2022/03/08 08:29:26;;;;;;;21.45;13.35;;;1.70;99.90;;;;;;5038946;28;20045;-74
2022/03/08 08:31:52;;;;;;;23.02;13.95;;;1.80;99.90;;;;;;5038626;28;20048;-77
2022/03/08 08:34:18;;;;;;;23.15;13.57;;;2.00;99.90;;;;;;5038381;28;20385;-75
2022/03/08 08:36:47;;;;;;;20.27;13.82;;;2.00;99.90;;;;;;5021882;28;20049;-76
2022/03/08 08:39:14;;;;;;;20.90;13.55;;;2.10;99.90;;;;;;5022343;28;20362;-77
2022/03/08 08:41:44;;;;;;;18.00;12.55;;;2.30;99.90;;;;;;5038612;28;20052;-75
2022/03/08 08:44:11;;;;;;;19.35;12.98;;;2.40;99.90;;;;;;5039100;28;20044;-74
2022/03/08 08:46:37;;;;;;;19.45;12.70;;;2.50;99.90;;;;;;5038924;28;20045;-75
2022/03/08 08:49:04;;;;;;;20.30;12.48;;;2.80;99.90;;;;;;5038355;28;20049;-75
2022/03/08 08:51:30;;;;;;;18.75;12.65;;;2.90;99.90;;;;;;5030354;28;20124;-76
2022/03/08 08:53:55;;;;;;;20.75;12.63;;;2.90;99.90;;;;;;5020004;28;20052;-75
2022/03/08 08:56:21;;;;;;;20.48;12.32;;;3.10;99.90;;;;;;5039886;28;20053;-75
2022/03/08 08:58:47;;;;;;;19.60;12.02;;;3.20;99.90;;;;;;5038559;28;20430;-75
2022/03/08 09:01:13;;;;;;;20.65;11.90;;;3.30;99.90;;;;;;5039071;28;20045;-74
2022/03/08 09:03:38;;;;;;;18.30;12.02;;;3.40;99.90;;;;;;5022632;28;20045;-75
2022/03/08 09:06:04;;;;;;;19.40;11.68;;;3.50;99.90;;;;;;5038774;28;20067;-76
2022/03/08 09:08:30;;;;;;;17.38;11.20;;;3.60;99.90;;;;;;5057822;28;20044;-75
2022/03/08 09:10:55;;;;;;;17.45;11.40;;;3.70;99.90;;;;;;5048889;28;20419;-76
2022/03/08 09:13:22;;;;;;;15.90;11.35;;;3.90;99.90;;;;;;5055454;28;20603;-74
2022/03/08 09:15:48;;;;;;;18.27;11.57;;;4.00;99.90;;;;;;5012590;28;20186;-74
2022/03/08 09:18:15;;;;;;;17.85;11.70;;;4.10;99.90;;;;;;5038327;28;20083;-75
2022/03/08 09:20:41;;;;;;;17.75;11.18;;;4.20;99.90;;;;;;5039398;28;20064;-75
2022/03/08 09:23:07;;;;;;;16.02;11.15;;;4.30;99.90;;;;;;5038236;28;20080;-76
2022/03/08 09:25:33;;;;;;;17.35;10.73;;;4.40;99.90;;;;;;5038201;28;20059;-76
2022/03/08 09:27:59;;;;;;;17.48;11.25;;;4.50;99.90;;;;;;5038515;28;20049;-76
2022/03/08 09:30:25;;;;;;;16.20;11.25;;;4.70;99.90;;;;;;5055623;28;20040;-75
2022/03/08 09:32:51;;;;;;;13.73;9.73;;;4.70;99.90;;;;;;5054903;28;20365;-73
2022/03/08 09:35:17;;;;;;;15.20;11.15;;;4.80;99.90;;;;;;5038289;28;20087;-75
2022/03/08 09:37:42;;;;;;;14.95;9.52;;;4.90;99.90;;;;;;5038190;28;20104;-75
2022/03/08 09:40:09;;;;;;;15.10;10.20;;;5.00;99.90;;;;;;5038005;28;20127;-73
2022/03/08 09:42:34;;;;;;;15.45;9.85;;;5.10;99.90;;;;;;5037612;28;20044;-75
2022/03/08 09:45:00;;;;;;;14.13;9.93;;;5.20;99.90;;;;;;5038021;28;20190;-75
2022/03/08 09:47:26;;;;;;;12.80;9.98;;;5.40;99.90;;;;;;5068713;28;20052;-74
2022/03/08 09:49:51;;;;;;;18.48;9.93;;;5.40;99.90;;;;;;5058201;28;20044;-73
2022/03/08 09:52:19;;;;;;;16.55;10.02;;;5.50;99.90;;;;;;5075121;28;20049;-75
2022/03/08 09:54:45;;;;;;;14.10;9.55;;;5.50;99.90;;;;;;5074935;28;20364;-75
2022/03/08 09:57:15;;;;;;;20.08;9.98;;;5.60;99.90;;;;;;5058324;28;20128;-76
2022/03/08 09:59:41;;;;;;;16.38;10.18;;;5.70;99.90;;;;;;5075191;28;20052;-74
2022/03/08 10:02:07;;;;;;;17.85;11.07;;;5.80;99.90;;;;;;5075045;28;20052;-72
2022/03/08 10:04:33;;;;;;;13.43;10.35;;;5.90;99.90;;;;;;5057821;28;20036;-74
2022/03/08 10:06:58;;;;;;;14.25;10.23;;;5.90;99.90;;;;;;5075326;28;20046;-74
2022/03/08 10:09:25;;;;;;;15.35;10.02;;;6.00;99.90;;;;;;5074929;28;20059;-73
2022/03/08 10:11:55;;;;;;;14.00;9.45;;;6.00;99.90;;;;;;5075522;28;20056;-73
2022/03/08 10:14:39;;;;;;;12.32;9.25;;;6.20;99.90;;;;;;5057117;28;20055;-73
2022/03/08 10:17:06;;;;;;;13.00;8.82;;;6.30;99.90;;;;;;5065413;28;20049;-76
2022/03/08 10:19:43;;;;;;;13.85;8.65;;;6.50;99.90;;;;;;5054728;28;20052;-74
2022/03/08 10:22:28;;;;;;;12.85;9.00;;;6.50;99.90;;;;;;5037202;28;20056;-73
2022/03/08 10:25:11;;;;;;;12.68;8.35;;;6.60;99.90;;;;;;5037454;28;20516;-73
2022/03/08 10:27:37;;;;;;;10.77;6.90;;;6.70;99.90;;;;;;5037114;28;20049;-74
2022/03/08 10:30:04;;;;;;;11.75;7.28;;;6.80;99.90;;;;;;5054950;28;20356;-73
2022/03/08 10:32:36;;;;;;;11.90;7.47;;;6.90;99.90;;;;;;5037060;28;20057;-74
2022/03/08 10:35:03;;;;;;;10.38;6.40;;;7.00;99.90;;;;;;5054729;28;20411;-73
2022/03/08 10:37:35;;;;;;;10.57;7.00;;;7.10;99.90;;;;;;5055029;28;20345;-73
2022/03/08 10:40:04;;;;;;;10.88;6.70;;;7.10;99.90;;;;;;5037648;28;20135;-72
2022/03/08 10:42:32;;;;;;;9.80;7.03;;;7.20;99.90;;;;;;5055076;28;20174;-74
2022/03/08 10:45:03;;;;;;;9.93;7.25;;;7.30;99.90;;;;;;5037307;28;20045;-74
2022/03/08 10:47:43;;;;;;;8.02;6.35;;;7.30;99.90;;;;;;5054508;28;20110;-75
2022/03/08 10:50:11;;;;;;;9.88;6.82;;;7.40;99.90;;;;;;5054935;28;20443;-73
2022/03/08 10:52:39;;;;;;;9.27;6.75;;;7.50;99.90;;;;;;5037175;28;20119;-76
2022/03/08 10:55:09;;;;;;;12.05;7.00;;;7.60;99.90;;;;;;5020447;28;20445;-73
2022/03/08 10:57:35;;;;;;;9.30;6.97;;;7.60;99.90;;;;;;5036717;28;20056;-74
2022/03/08 11:00:01;;;;;;;8.73;7.15;;;7.70;99.90;;;;;;5037347;28;20048;-74
2022/03/08 11:02:26;;;;;;;8.75;6.55;;;7.80;99.90;;;;;;5037869;28;20053;-75
2022/03/08 11:05:09;;;;;;;10.52;7.82;;;7.90;99.90;;;;;;5039836;28;20041;-73
2022/03/08 11:07:36;;;;;;;8.57;6.15;;;7.90;99.90;;;;;;5058662;28;20053;-75
2022/03/08 11:10:08;;;;;;;12.65;6.95;;;8.00;99.90;;;;;;5040483;28;20045;-73
2022/03/08 11:12:35;;;;;;;9.13;6.93;;;8.00;99.90;;;;;;5040820;28;20099;-73
2022/03/08 11:15:02;;;;;;;12.38;7.10;;;8.00;99.90;;;;;;5058334;28;20127;-75
2022/03/08 11:17:28;;;;;;;8.27;6.30;;;8.10;99.90;;;;;;5041083;28;20059;-74
2022/03/08 11:19:54;;;;;;;10.52;6.25;;;8.10;99.90;;;;;;5041060;28;20045;-73
2022/03/08 11:22:21;;;;;;;14.82;6.47;;;8.20;99.20;;;;;;5058162;28;20037;-74
2022/03/08 11:24:47;;;;;;;9.07;6.45;;;8.30;98.60;;;;;;5058203;28;20044;-75
2022/03/08 11:27:14;;;;;;;8.75;6.60;;;8.30;99.50;;;;;;5040718;28;20080;-73
2022/03/08 11:29:40;;;;;;;7.90;6.15;;;8.40;99.60;;;;;;5040863;28;20057;-74
2022/03/08 11:32:12;;;;;;;8.43;5.97;;;8.40;97.90;;;;;;5067468;28;20052;-73
2022/03/08 11:35:11;;;;;;;10.20;7.07;;;8.40;99.90;;;;;;5074157;28;20556;-73
2022/03/08 11:37:40;;;;;;;9.10;6.80;;;8.50;99.60;;;;;;5077677;28;20052;-74
2022/03/08 11:40:15;;;;;;;9.77;7.30;;;8.50;99.90;;;;;;5060378;28;20239;-73
2022/03/08 11:42:45;;;;;;;10.20;6.55;;;8.50;99.90;;;;;;5060481;28;20059;-73
2022/03/08 11:45:20;;;;;;;9.27;6.55;;;8.60;99.20;;;;;;5060397;28;20052;-74
2022/03/08 11:47:54;;;;;;;8.85;5.60;;;8.70;99.90;;;;;;5060450;28;20048;-75
2022/03/08 11:50:44;;;;;;;8.95;6.47;;;8.70;97.30;;;;;;5078244;28;20117;-76
2022/03/08 11:53:15;;;;;;;11.90;6.93;;;8.80;96.40;;;;;;5043884;28;20048;-73
2022/03/08 11:55:44;;;;;;;8.77;6.22;;;8.80;99.80;;;;;;5060182;28;20091;-76
2022/03/08 11:58:21;;;;;;;8.25;5.82;;;8.90;99.90;;;;;;5059881;28;20179;-73
2022/03/08 12:00:52;;;;;;;7.10;4.93;;;9.00;99.00;;;;;;5072903;28;20129;-72
2022/03/08 12:03:39;;;;;;;7.13;5.00;;;9.20;96.50;;;;;;5040544;28;20048;-73
2022/03/08 12:06:06;;;;;;;6.88;5.22;;;9.10;92.70;;;;;;5039708;28;20164;-73
2022/03/08 12:08:31;;;;;;;11.02;5.13;;;9.20;99.20;;;;;;5039942;28;20473;-73
2022/03/08 12:11:00;;;;;;;8.25;5.20;;;9.20;98.80;;;;;;5039473;28;20061;-72
2022/03/08 12:13:36;;;;;;;7.70;4.85;;;9.20;95.00;;;;;;5040365;28;20056;-74
2022/03/08 12:16:08;;;;;;;8.43;5.45;;;9.20;95.00;;;;;;5023021;28;20087;-75
2022/03/08 12:18:36;;;;;;;8.98;4.93;;;9.30;96.80;;;;;;5057625;28;20102;-74
2022/03/08 12:21:20;;;;;;;8.27;4.60;;;9.40;95.20;;;;;;5057622;28;20088;-74
2022/03/08 12:24:17;;;;;;;8.43;4.80;;;9.50;94.90;;;;;;5057220;28;20059;-73
2022/03/08 12:26:57;;;;;;;7.53;4.40;;;9.50;91.20;;;;;;5054346;28;20052;-73
2022/03/08 12:29:24;;;;;;;6.45;4.60;;;9.50;92.40;;;;;;5057486;28;20116;-74
2022/03/08 12:31:58;;;;;;;6.88;4.50;;;9.60;96.20;;;;;;5052489;28;20052;-74
2022/03/08 12:34:36;;;;;;;7.72;5.55;;;9.70;94.10;;;;;;5076872;28;20048;-74